Flight Track Log - Related Links

Times and Time Zones

All times are in EDT time to prevent confusion due to time zone crossing. See the N513SJ flight status page for this flight to view local times or setup timezone preferences in your user account.

Time Position Orientation Groundspeed Altitude Reporting Facility
EDT Latitude Longitude Course Direction KTS MPH feet Rate Location/Type
Sun 03:57:00 PM 32.1693 -115.2032 332° Northwest  Level FlightAware Approximate
Sun 03:58:00 PM 32.2207 -115.2359 332° Northwest  Level FlightAware Approximate
Sun 03:59:00 PM 32.2721 -115.2687 332° Northwest  Level FlightAware Approximate
Sun 04:00:00 PM 32.3235 -115.3015 332° Northwest  Level FlightAware Approximate
Sun 04:01:00 PM 32.3749 -115.3343 332° Northwest  Level FlightAware Approximate
Sun 04:02:00 PM 32.4263 -115.3672 332° Northwest  Level FlightAware Approximate
Sun 04:03:00 PM 32.4777 -115.4001 332° Northwest  Level FlightAware Approximate
Sun 04:04:00 PM 32.5291 -115.4330 332° Northwest  Level FlightAware Approximate
Sun 04:05:00 PM 32.5804 -115.4660 332° Northwest  Level FlightAware Approximate
Sun 04:06:00 PM 32.6318 -115.4990 332° Northwest  Level FlightAware Approximate
Sun 04:07:00 PM 32.6667 -115.5167 320° Northwest  Level FlightAware Approximate
Sun 04:08:00 PM 32.6674 -115.5176 320° Northwest  Level Estimated
Sun 04:09:00 PM 32.6667 -115.5167 320° Northwest  Level FlightAware Approximate
Sun 04:10:00 PM 32.6674 -115.5176 320° Northwest  Level Estimated
Sun 04:11:00 PM 32.6667 -115.5167 320° Northwest  Level FlightAware Approximate
Sun 04:12:00 PM 32.6674 -115.5176 320° Northwest  Level Estimated
Sun 04:13:00 PM 32.6667 -115.5167 320° Northwest  Level FlightAware Approximate
Sun 04:14:00 PM 32.6674 -115.5176 320° Northwest  Level Estimated
Sun 04:15:00 PM 32.6667 -115.5167 320° Northwest  Level FlightAware Approximate
Sun 04:16:00 PM 32.6674 -115.5176 320° Northwest  Level Estimated
Sun 04:17:00 PM 32.6667 -115.5167 320° Northwest  Level FlightAware Approximate

Login

Don't have an account? Register now (free) for customized features, flight alerts, and more!